Time;durP1;ratioP1;P1;durP2;ratioP2;P2;SDS_P1;SDS_P2;PMS_P1;PMS_P2;Temp;Humidity;BMP_temperature;BMP_pressure;BME280_temperature;BME280_humidity;BME280_pressure;Samples;Min_cycle;Max_cycle;Signal;HPM_P1;HPM_P2
2021/01/01 00:02:25;;;;;;;63.67;52.95;;;;;;;3.06;86.74;100050.66;4885577;29;20096;-76
2021/01/01 00:05:35;;;;;;;70.60;56.53;;;;;;;3.08;86.66;100036.34;4992390;28;20056;-77
2021/01/01 00:09:28;;;;;;;61.40;52.45;;;;;;;3.09;86.45;100014.19;4992628;28;20032;-77
2021/01/01 00:13:15;;;;;;;68.00;55.35;;;;;;;3.05;86.63;100015.34;5000940;28;20058;-76
2021/01/01 00:16:50;;;;;;;69.65;55.97;;;;;;;2.99;86.92;100012.19;4982480;28;20057;-85
2021/01/01 00:19:54;;;;;;;68.60;56.78;;;;;;;3.02;86.95;100015.50;4960398;28;20061;-86
2021/01/01 00:22:58;;;;;;;65.88;56.95;;;;;;;3.02;86.99;100004.91;5004342;28;20052;-79
2021/01/01 00:26:13;;;;;;;72.88;56.92;;;;;;;3.07;86.43;100013.44;5042885;28;20059;-86
2021/01/01 00:29:18;;;;;;;113.75;74.15;;;;;;;3.11;86.74;100004.31;5053537;28;20395;-78
2021/01/01 00:32:23;;;;;;;75.10;59.42;;;;;;;2.99;86.51;100005.09;5048106;28;20041;-78
2021/01/01 00:35:27;;;;;;;80.72;62.92;;;;;;;2.95;86.68;100008.91;5062104;28;20407;-77
2021/01/01 00:38:32;;;;;;;77.20;63.72;;;;;;;2.88;86.72;100002.28;5062526;28;20040;-77
2021/01/01 00:41:37;;;;;;;80.38;62.55;;;;;;;2.83;87.02;100001.72;5062562;28;20491;-78
2021/01/01 00:44:41;;;;;;;81.32;64.97;;;;;;;2.81;87.34;100006.25;5062497;28;20043;-78
2021/01/01 00:47:49;;;;;;;80.45;64.60;;;;;;;2.73;87.46;100012.97;5050554;28;20044;-77
2021/01/01 00:50:53;;;;;;;78.95;62.22;;;;;;;2.56;88.27;100021.94;5062268;28;20044;-78
2021/01/01 00:54:02;;;;;;;83.65;63.33;;;;;;;2.45;88.27;100016.41;5062555;28;20068;-78
2021/01/01 00:57:06;;;;;;;78.30;64.47;;;;;;;2.38;88.63;100013.28;5062509;28;20407;-78
2021/01/01 01:00:12;;;;;;;79.40;65.57;;;;;;;2.42;88.67;100013.97;5062110;28;20063;-78
2021/01/01 01:03:16;;;;;;;79.03;65.07;;;;;;;2.51;88.36;100024.00;5062261;28;20055;-78
2021/01/01 01:06:21;;;;;;;84.10;64.95;;;;;;;2.53;88.65;100033.56;5062250;28;20047;-77
2021/01/01 01:09:25;;;;;;;81.45;64.03;;;;;;;2.66;88.62;100040.78;5062138;28;20398;-76
2021/01/01 01:12:31;;;;;;;81.78;67.07;;;;;;;2.71;88.30;100046.66;5062161;28;20048;-77
2021/01/01 01:15:35;;;;;;;83.28;65.60;;;;;;;2.59;88.41;100054.38;5064665;28;20056;-77
2021/01/01 01:18:40;;;;;;;74.25;61.90;;;;;;;2.51;88.52;100034.59;5074197;28;20051;-79
2021/01/01 01:21:44;;;;;;;79.25;63.72;;;;;;;2.52;88.63;100041.59;5061981;28;20047;-80
2021/01/01 01:24:48;;;;;;;75.85;61.67;;;;;;;2.51;88.90;100031.97;5062030;28;20050;-78
2021/01/01 01:27:52;;;;;;;71.78;59.00;;;;;;;2.57;88.97;100045.69;5061956;28;20155;-76
2021/01/01 01:30:57;;;;;;;74.30;61.50;;;;;;;2.66;88.59;100052.22;5061586;28;20051;-78
2021/01/01 01:34:01;;;;;;;79.03;61.42;;;;;;;2.64;88.56;100046.19;5065482;28;20051;-78
2021/01/01 01:37:05;;;;;;;73.57;59.70;;;;;;;2.75;88.93;100051.66;5059375;28;20047;-79
2021/01/01 01:40:10;;;;;;;79.70;63.25;;;;;;;2.80;88.69;100049.59;5058429;28;20054;-77
2021/01/01 01:43:15;;;;;;;76.65;60.88;;;;;;;2.86;88.48;100043.06;5058506;28;20501;-78
2021/01/01 01:46:22;;;;;;;74.32;60.30;;;;;;;2.85;88.23;100036.06;5058789;28;20046;-78
2021/01/01 01:49:26;;;;;;;71.53;59.08;;;;;;;2.90;88.29;100028.69;5058308;28;20067;-77
2021/01/01 01:52:31;;;;;;;74.63;58.70;;;;;;;2.93;88.02;100032.00;5058722;28;20051;-78
2021/01/01 01:55:36;;;;;;;72.97;59.28;;;;;;;2.91;88.09;100028.59;5070048;28;20047;-77
2021/01/01 01:58:41;;;;;;;69.97;56.08;;;;;;;2.91;87.70;100025.94;5058717;28;20066;-77
2021/01/01 02:01:46;;;;;;;73.25;59.97;;;;;;;2.92;87.33;100030.28;5058803;28;20070;-78
2021/01/01 02:04:50;;;;;;;69.50;59.95;;;;;;;2.88;87.79;100017.31;5069899;28;20039;-79
2021/01/01 02:07:55;;;;;;;74.40;59.70;;;;;;;2.86;87.99;100016.56;5069696;28;20043;-76
2021/01/01 02:11:00;;;;;;;72.70;60.83;;;;;;;2.91;88.10;100023.28;5058675;28;20378;-77
2021/01/01 02:14:06;;;;;;;70.97;58.97;;;;;;;2.88;88.36;100026.13;5058258;28;20051;-76
2021/01/01 02:17:10;;;;;;;69.45;58.65;;;;;;;2.92;88.10;100029.44;5079472;28;20054;-79
2021/01/01 02:20:15;;;;;;;72.55;60.45;;;;;;;2.92;88.23;100019.69;5068555;28;20062;-79
2021/01/01 02:23:20;;;;;;;69.63;58.47;;;;;;;2.88;88.25;100006.72;5067748;28;20147;-78
2021/01/01 02:26:24;;;;;;;74.70;60.10;;;;;;;2.83;88.41;99998.19;5057128;28;20545;-78
2021/01/01 02:29:29;;;;;;;67.88;57.17;;;;;;;2.75;87.83;100013.72;5079845;28;20127;-78
2021/01/01 02:32:33;;;;;;;69.68;57.40;;;;;;;2.75;87.71;100019.00;5068395;28;20051;-77
2021/01/01 02:35:38;;;;;;;72.30;59.28;;;;;;;2.73;87.91;100027.06;5055961;28;20063;-79
2021/01/01 02:38:42;;;;;;;72.22;60.00;;;;;;;2.77;87.95;100041.81;5079963;28;20043;-77
2021/01/01 02:41:47;;;;;;;67.53;57.20;;;;;;;2.86;88.25;100048.38;5082300;28;20051;-78
2021/01/01 02:44:51;;;;;;;74.57;59.80;;;;;;;2.88;88.24;100035.88;5071782;28;20055;-78
2021/01/01 02:47:56;;;;;;;67.22;57.30;;;;;;;2.93;88.36;100039.94;5072292;28;20119;-77
2021/01/01 02:51:00;;;;;;;72.38;58.38;;;;;;;2.92;88.72;100030.28;5060962;28;20051;-77
2021/01/01 02:53:46;;;;;;;71.45;59.85;;;;;;;2.92;88.72;100032.94;5081215;28;20410;-77
2021/01/01 02:56:50;;;;;;;70.82;57.65;;;;;;;2.89;89.22;100025.16;5053693;28;20051;-78
2021/01/01 02:59:54;;;;;;;70.85;58.33;;;;;;;2.88;88.89;100022.63;5064660;28;20048;-78
2021/01/01 03:03:07;;;;;;;68.25;57.10;;;;;;;2.87;88.95;100012.94;5063260;28;20403;-77
2021/01/01 03:06:58;;;;;;;69.15;55.72;;;;;;;2.79;88.95;100005.47;5054821;28;20534;-78
2021/01/01 03:10:03;;;;;;;66.32;55.13;;;;;;;2.78;88.59;99993.19;5044247;28;20538;-78
2021/01/01 03:13:08;;;;;;;66.47;55.35;;;;;;;2.77;88.66;99994.13;5044813;28;20525;-79
2021/01/01 03:16:12;;;;;;;63.67;53.20;;;;;;;2.84;88.21;99997.25;5024500;28;20060;-77
2021/01/01 03:19:17;;;;;;;67.32;54.95;;;;;;;2.83;88.13;100006.16;5024440;28;20064;-78
2021/01/01 03:22:21;;;;;;;64.85;55.42;;;;;;;2.80;88.78;100004.53;5029952;28;20399;-75
2021/01/01 03:25:25;;;;;;;70.70;55.13;;;;;;;2.86;88.83;100014.78;5044297;28;20052;-76
2021/01/01 03:28:30;;;;;;;65.95;53.03;;;;;;;2.86;89.56;100005.97;5044214;28;20087;-78
2021/01/01 03:31:34;;;;;;;66.97;56.60;;;;;;;2.86;89.46;100017.44;5043843;28;20044;-78
2021/01/01 03:34:39;;;;;;;68.10;56.33;;;;;;;2.90;89.56;100010.97;5052553;28;20083;-77
2021/01/01 03:37:44;;;;;;;68.10;57.53;;;;;;;2.90;89.71;100005.69;5052656;28;20051;-79
2021/01/01 03:40:48;;;;;;;70.60;59.95;;;;;;;2.85;89.83;100001.59;5064198;28;20056;-76
2021/01/01 03:43:53;;;;;;;72.05;59.20;;;;;;;2.79;89.96;99994.88;5052441;28;20052;-79
2021/01/01 03:46:57;;;;;;;72.35;59.03;;;;;;;2.76;90.31;99988.94;5063631;28;20048;-79
2021/01/01 03:50:02;;;;;;;70.28;59.00;;;;;;;2.74;90.27;99980.22;5063573;28;20051;-76
2021/01/01 03:53:06;;;;;;;70.20;59.08;;;;;;;2.66;90.57;99975.41;5074668;28;20513;-78
2021/01/01 03:56:11;;;;;;;71.45;60.00;;;;;;;2.68;90.42;99980.59;5051797;28;20052;-78
2021/01/01 03:59:15;;;;;;;75.30;62.17;;;;;;;2.61;90.88;99988.94;5063603;28;20052;-78
2021/01/01 04:02:20;;;;;;;76.75;65.38;;;;;;;2.53;91.07;99988.53;5052271;28;20067;-78
2021/01/01 04:05:24;;;;;;;76.07;63.60;;;;;;;2.60;91.75;100003.13;5063522;28;20043;-79
2021/01/01 04:08:29;;;;;;;77.78;61.10;;;;;;;2.66;91.52;99993.94;5063389;28;20102;-79
2021/01/01 04:11:39;;;;;;;75.25;60.40;;;;;;;2.68;91.53;100000.00;5063781;28;20387;-78
2021/01/01 04:14:43;;;;;;;70.97;61.40;;;;;;;2.66;91.52;100001.91;5051580;28;20399;-76
2021/01/01 04:17:48;;;;;;;75.03;61.03;;;;;;;2.67;91.70;100000.94;5051848;28;20410;-78
2021/01/01 04:20:52;;;;;;;77.65;60.67;;;;;;;2.69;91.67;99990.25;5062810;28;20047;-78
2021/01/01 04:23:56;;;;;;;75.53;62.50;;;;;;;2.65;91.12;99989.56;5062793;28;20055;-78
2021/01/01 04:27:01;;;;;;;72.70;62.50;;;;;;;2.67;91.36;99987.69;5063114;28;20051;-79
2021/01/01 04:30:05;;;;;;;71.47;60.92;;;;;;;2.69;91.67;100003.50;5063021;28;20056;-76
2021/01/01 04:33:10;;;;;;;72.15;61.70;;;;;;;2.70;91.43;100008.69;5051194;28;20417;-78
2021/01/01 04:36:14;;;;;;;73.10;61.13;;;;;;;2.75;91.40;100003.13;5051153;28;20387;-76
2021/01/01 04:39:18;;;;;;;73.00;59.90;;;;;;;2.81;91.19;100000.97;5062906;28;20059;-77
2021/01/01 04:42:24;;;;;;;73.00;61.38;;;;;;;2.75;90.45;99993.38;5051296;28;20071;-77
2021/01/01 04:45:29;;;;;;;75.75;61.88;;;;;;;2.60;90.41;99983.72;5062752;28;20439;-77
2021/01/01 04:48:33;;;;;;;71.43;61.03;;;;;;;2.60;90.82;99986.34;5062521;28;20040;-78
2021/01/01 04:51:38;;;;;;;74.88;63.50;;;;;;;2.60;90.83;99983.72;5050905;28;20063;-77
2021/01/01 04:54:44;;;;;;;79.50;65.38;;;;;;;2.54;91.07;99962.91;5050442;28;20063;-77
2021/01/01 04:57:53;;;;;;;78.82;64.28;;;;;;;2.63;90.80;99975.59;5051086;28;20048;-78
2021/01/01 05:00:57;;;;;;;77.65;63.88;;;;;;;2.64;91.16;99959.56;5062350;28;20048;-78
2021/01/01 05:04:04;;;;;;;79.97;65.88;;;;;;;2.59;91.03;99959.00;5061786;28;20055;-78
2021/01/01 05:07:23;;;;;;;75.60;63.10;;;;;;;2.53;91.13;99964.69;5062340;28;20044;-78
2021/01/01 05:10:33;;;;;;;78.18;65.55;;;;;;;2.56;91.39;99959.22;5062298;28;20043;-77
2021/01/01 05:13:37;;;;;;;76.57;63.15;;;;;;;2.66;90.97;99961.28;5056587;28;20044;-77
2021/01/01 05:16:51;;;;;;;74.75;63.65;;;;;;;2.63;90.77;99955.25;5060095;28;20056;-78
2021/01/01 05:20:08;;;;;;;73.93;62.70;;;;;;;2.63;90.55;99957.03;5061655;28;20402;-77
2021/01/01 05:23:22;;;;;;;74.13;63.10;;;;;;;2.65;91.12;99949.84;5061809;28;20166;-79
2021/01/01 05:26:28;;;;;;;76.28;61.88;;;;;;;2.65;90.66;99957.78;5073714;28;20052;-78
2021/01/01 05:29:38;;;;;;;69.47;61.38;;;;;;;2.69;90.35;99969.06;5061924;28;20048;-78
2021/01/01 05:32:52;;;;;;;72.63;59.75;;;;;;;2.68;90.04;99973.50;5061850;28;20115;-79
2021/01/01 05:36:05;;;;;;;;;;;;;;;2.67;90.33;99976.25;5030016;28;20052;-77
2021/01/01 05:39:18;;;;;;;73.43;60.60;;;;;;;2.62;89.95;99979.16;5041616;28;19923;-78
2021/01/01 05:42:22;;;;;;;71.75;61.80;;;;;;;2.59;89.99;99964.31;5030347;28;20063;-78
2021/01/01 05:45:27;;;;;;;72.25;62.40;;;;;;;2.54;90.34;99966.38;5041720;28;20059;-78
2021/01/01 05:48:32;;;;;;;73.10;63.58;;;;;;;2.47;90.28;99978.31;5041394;28;20056;-78
2021/01/01 05:51:36;;;;;;;77.00;62.42;;;;;;;2.48;90.70;99968.56;5041609;28;20044;-78
2021/01/01 05:54:42;;;;;;;71.60;61.67;;;;;;;2.57;90.56;99979.44;5041589;28;20052;-78
2021/01/01 05:57:48;;;;;;;73.63;63.25;;;;;;;2.53;90.40;99977.09;5041738;28;20044;-78
2021/01/01 06:00:55;;;;;;;75.57;63.53;;;;;;;2.48;90.55;99974.72;5029638;28;20044;-78
2021/01/01 06:04:02;;;;;;;77.20;64.53;;;;;;;2.55;90.46;99978.69;5030112;28;20052;-79
2021/01/01 06:07:10;;;;;;;75.15;63.28;;;;;;;2.58;90.62;99986.47;5030080;28;20048;-78
2021/01/01 06:10:15;;;;;;;75.05;63.72;;;;;;;2.64;90.36;99990.53;5030141;28;20052;-80
2021/01/01 06:13:21;;;;;;;79.80;65.45;;;;;;;2.66;90.41;99982.50;5030240;28;20052;-77
2021/01/01 06:16:27;;;;;;;77.45;64.50;;;;;;;2.57;90.29;99971.50;5043398;28;20052;-78
2021/01/01 06:19:52;;;;;;;78.85;64.97;;;;;;;2.55;90.14;99960.16;5033795;28;20056;-77
2021/01/01 06:23:08;;;;;;;79.45;64.07;;;;;;;2.54;90.63;99970.84;5033966;28;20364;-78
2021/01/01 06:26:13;;;;;;;81.88;66.72;;;;;;;2.53;90.84;99979.72;5034274;28;20060;-78
2021/01/01 06:29:18;;;;;;;76.68;65.75;;;;;;;2.52;91.05;99983.31;5034258;28;20052;-77
2021/01/01 06:32:23;;;;;;;79.55;64.72;;;;;;;2.54;90.65;99986.75;5033538;28;20399;-79
2021/01/01 06:35:27;;;;;;;81.28;66.05;;;;;;;2.51;90.63;99976.34;5051888;28;20048;-79
2021/01/01 06:38:36;;;;;;;80.78;68.93;;;;;;;2.52;90.75;99988.63;5056296;28;20048;-78
2021/01/01 06:41:47;;;;;;;77.32;64.93;;;;;;;2.50;90.74;99983.41;5033669;28;20063;-80
2021/01/01 06:44:51;;;;;;;80.82;65.18;;;;;;;2.58;91.02;99988.25;5045164;28;20379;-78
2021/01/01 06:47:55;;;;;;;77.93;64.53;;;;;;;2.56;90.69;99990.16;5033680;28;20048;-78
2021/01/01 06:51:00;;;;;;;79.88;66.18;;;;;;;2.49;91.11;100010.00;5044991;28;20068;-78
2021/01/01 06:54:14;;;;;;;81.97;67.25;;;;;;;2.51;91.24;100024.88;5033089;28;20048;-77
2021/01/01 06:57:18;;;;;;;;;;;;;;;2.43;91.29;100026.25;5033744;28;20072;-76
2021/01/01 07:00:47;;;;;;;81.28;67.25;;;;;;;2.42;91.50;100003.38;5033477;28;20351;-78
2021/01/01 07:03:55;;;;;;;82.50;67.55;;;;;;;2.46;91.47;100015.50;5033841;28;20056;-77
2021/01/01 07:06:59;;;;;;;81.50;67.28;;;;;;;2.47;91.55;100011.88;5064111;28;20502;-78
2021/01/01 07:10:05;;;;;;;78.95;66.80;;;;;;;2.45;91.48;100009.34;5064523;28;20067;-77
2021/01/01 07:13:18;;;;;;;76.55;63.60;;;;;;;2.47;91.31;100019.81;5064765;28;20201;-80
2021/01/01 07:16:25;;;;;;;79.63;66.78;;;;;;;2.44;91.23;100014.72;5064472;28;20044;-78
2021/01/01 07:19:29;;;;;;;85.90;72.95;;;;;;;2.47;91.73;100028.63;5064310;28;20059;-78
2021/01/01 07:22:33;;;;;;;89.15;74.78;;;;;;;2.57;92.62;100042.16;5064263;28;20056;-78
2021/01/01 07:25:38;;;;;;;79.70;70.05;;;;;;;2.49;92.78;100025.91;5064332;28;20067;-78
2021/01/01 07:28:46;;;;;;;87.10;70.95;;;;;;;2.48;92.31;100029.47;5064303;28;20052;-78
2021/01/01 07:31:52;;;;;;;88.10;74.30;;;;;;;2.42;92.38;100029.88;5064139;28;20047;-77
2021/01/01 07:34:57;;;;;;;81.85;69.35;;;;;;;2.44;92.30;100022.69;5063656;28;20051;-78
2021/01/01 07:38:03;;;;;;;82.60;71.50;;;;;;;2.50;92.43;100032.88;5092560;28;20090;-77
2021/01/01 07:41:08;;;;;;;83.78;71.63;;;;;;;2.47;91.91;100023.31;5072733;28;20050;-77
2021/01/01 07:44:12;;;;;;;83.75;70.70;;;;;;;2.39;91.94;100025.59;5072093;28;20394;-78
2021/01/01 07:47:17;;;;;;;91.35;73.82;;;;;;;2.31;92.22;100024.34;5072433;28;20051;-78
2021/01/01 07:50:21;;;;;;;84.97;75.68;;;;;;;2.29;92.47;100044.78;5040222;28;20499;-78
2021/01/01 07:53:26;;;;;;;91.65;78.15;;;;;;;2.31;92.58;100066.72;5051568;28;20060;-78
2021/01/01 07:56:30;;;;;;;92.32;76.13;;;;;;;2.37;92.69;100066.38;5043742;28;20052;-78
2021/01/01 07:59:35;;;;;;;87.85;73.43;;;;;;;2.45;92.98;100061.44;5054679;28;20052;-78
2021/01/01 08:02:39;;;;;;;87.40;72.60;;;;;;;2.51;92.53;100050.50;5063457;28;20055;-78
2021/01/01 08:05:44;;;;;;;85.03;71.13;;;;;;;2.50;92.47;100057.59;5063214;28;20059;-78
2021/01/01 08:08:49;;;;;;;87.53;72.30;;;;;;;2.49;92.07;100033.84;5054061;28;20048;-77
2021/01/01 08:12:04;;;;;;;90.28;74.88;;;;;;;2.45;92.29;100040.25;5062688;28;20052;-79
2021/01/01 08:15:10;;;;;;;94.22;77.03;;;;;;;2.50;92.15;100028.44;5054700;28;20060;-78
2021/01/01 08:18:15;;;;;;;101.53;82.13;;;;;;;2.45;92.50;100025.22;5052244;28;20052;-77
2021/01/01 08:21:20;;;;;;;97.10;78.07;;;;;;;2.56;92.77;100045.78;5063171;28;20049;-77
2021/01/01 08:24:32;;;;;;;88.68;75.45;;;;;;;2.56;92.66;100044.00;5062803;28;20052;-77
2021/01/01 08:27:37;;;;;;;86.68;74.97;;;;;;;2.58;92.64;100059.78;5063132;28;20047;-78
2021/01/01 08:30:42;;;;;;;95.53;77.55;;;;;;;2.47;92.50;100059.56;5056797;28;20052;-77
2021/01/01 08:33:51;;;;;;;97.60;81.20;;;;;;;2.57;92.89;100058.06;5064510;28;20406;-78
2021/01/01 08:36:56;;;;;;;93.03;77.93;;;;;;;2.61;93.05;100063.13;5043046;28;20052;-78
2021/01/01 08:40:05;;;;;;;94.05;77.43;;;;;;;2.57;92.92;100058.06;5030538;28;20048;-76
2021/01/01 08:43:10;;;;;;;94.55;78.97;;;;;;;2.53;92.92;100064.50;5031065;28;20052;-79
2021/01/01 08:46:20;;;;;;;101.95;81.57;;;;;;;2.51;93.17;100072.56;5030193;28;20048;-77
2021/01/01 08:49:24;;;;;;;94.63;77.60;;;;;;;2.61;92.99;100071.06;5013293;28;20045;-78
2021/01/01 08:52:28;;;;;;;97.80;79.40;;;;;;;2.60;92.74;100071.13;5041677;28;20075;-79
2021/01/01 08:55:33;;;;;;;102.88;78.35;;;;;;;2.64;92.86;100083.28;5033924;28;20044;-77
2021/01/01 08:58:38;;;;;;;95.55;77.40;;;;;;;2.61;92.46;100084.31;5038892;28;20049;-76
2021/01/01 09:01:43;;;;;;;107.80;85.20;;;;;;;2.52;92.75;100078.69;5041849;28;20063;-78
2021/01/01 09:04:47;;;;;;;111.85;85.85;;;;;;;2.49;92.87;100082.34;5022534;28;20053;-78
2021/01/01 09:08:17;;;;;;;100.38;81.25;;;;;;;2.56;92.79;100078.44;5036957;28;20041;-78
2021/01/01 09:11:22;;;;;;;99.65;79.35;;;;;;;2.66;92.72;100065.47;5042083;28;20045;-82
2021/01/01 09:14:26;;;;;;;101.15;81.90;;;;;;;2.65;92.78;100058.47;5030397;28;20064;-78
2021/01/01 09:17:31;;;;;;;105.43;83.13;;;;;;;2.62;92.86;100048.91;5022318;28;20045;-77
2021/01/01 09:20:40;;;;;;;101.97;83.22;;;;;;;2.62;93.12;100040.09;5036219;28;20045;-75
2021/01/01 09:23:53;;;;;;;109.05;87.05;;;;;;;2.64;92.84;100012.56;5041454;28;20049;-76
2021/01/01 09:26:58;;;;;;;114.00;88.93;;;;;;;2.71;93.23;99993.66;5041670;28;20488;-76
2021/01/01 09:30:04;;;;;;;102.82;83.90;;;;;;;2.83;93.35;100000.84;5041207;28;20048;-79
2021/01/01 09:33:08;;;;;;;99.40;79.78;;;;;;;2.89;93.13;100014.56;5030444;28;20048;-79
2021/01/01 09:36:13;;;;;;;94.03;78.13;;;;;;;2.94;92.84;100025.72;5060904;28;20044;-78
2021/01/01 09:39:17;;;;;;;93.82;76.50;;;;;;;2.91;92.57;100025.94;5060963;28;20514;-79
2021/01/01 09:42:24;;;;;;;92.65;75.90;;;;;;;2.98;92.04;100042.31;5061651;28;20379;-77
2021/01/01 09:45:29;;;;;;;142.63;116.57;;;;;;;2.94;92.03;100046.13;5061403;28;20060;-79
2021/01/01 09:48:34;;;;;;;189.70;129.98;;;;;;;2.89;91.97;100046.38;5061711;28;20045;-86
2021/01/01 09:51:40;;;;;;;92.03;76.22;;;;;;;2.78;91.99;100047.97;5061614;28;20041;-85
2021/01/01 09:54:44;;;;;;;91.72;76.07;;;;;;;2.72;91.72;100051.00;5061647;28;20048;-79
2021/01/01 09:57:48;;;;;;;88.90;73.30;;;;;;;2.78;92.30;100048.84;5061570;28;20048;-78
2021/01/01 10:00:53;;;;;;;85.32;74.00;;;;;;;2.78;92.29;100047.97;5041212;28;20063;-79
2021/01/01 10:03:58;;;;;;;84.30;72.65;;;;;;;2.87;92.11;100037.66;5052555;28;20044;-78
2021/01/01 10:07:02;;;;;;;83.22;69.65;;;;;;;2.90;92.14;100031.31;5041184;28;20052;-79
2021/01/01 10:10:09;;;;;;;88.90;72.25;;;;;;;3.00;91.74;100006.81;5052903;28;20143;-78
2021/01/01 10:13:14;;;;;;;81.45;67.90;;;;;;;3.01;91.59;100008.50;5029574;28;20070;-77
2021/01/01 10:16:18;;;;;;;77.85;65.90;;;;;;;3.10;91.10;100012.38;5041164;28;20506;-78
2021/01/01 10:19:23;;;;;;;78.57;67.25;;;;;;;3.13;91.15;100018.38;5051133;28;20391;-79
2021/01/01 10:22:27;;;;;;;79.45;65.75;;;;;;;3.11;90.61;100008.81;5047311;28;20507;-79
2021/01/01 10:25:32;;;;;;;80.72;65.90;;;;;;;3.16;90.99;100010.19;5061192;28;20040;-79
2021/01/01 10:28:36;;;;;;;76.13;65.88;;;;;;;3.08;90.47;100015.16;5061210;28;20056;-77
2021/01/01 10:31:40;;;;;;;86.80;72.63;;;;;;;2.89;91.02;100025.16;5049732;28;20086;-77
2021/01/01 10:34:44;;;;;;;96.00;76.05;;;;;;;2.77;91.29;100015.31;5045651;28;20059;-76
2021/01/01 10:37:52;;;;;;;90.22;72.93;;;;;;;2.75;91.79;99995.16;5056875;28;20418;-76
2021/01/01 10:40:57;;;;;;;87.05;72.07;;;;;;;2.84;91.75;99995.44;5045274;28;20502;-79
2021/01/01 10:44:03;;;;;;;83.95;69.07;;;;;;;2.93;91.64;99997.53;5056607;28;20055;-79
2021/01/01 10:47:07;;;;;;;83.82;68.78;;;;;;;3.04;91.59;99988.91;5045392;28;20067;-79
2021/01/01 10:50:12;;;;;;;80.38;68.43;;;;;;;3.07;91.35;99994.88;5035850;28;20043;-80
2021/01/01 10:53:32;;;;;;;84.82;68.70;;;;;;;3.19;90.87;99996.75;5061049;28;20051;-81
2021/01/01 10:56:36;;;;;;;83.50;68.40;;;;;;;3.23;90.80;99987.63;5048546;28;20051;-80
2021/01/01 10:59:41;;;;;;;81.30;68.22;;;;;;;3.30;90.03;99974.84;5048015;28;20047;-81
2021/01/01 11:02:46;;;;;;;79.32;66.10;;;;;;;3.39;89.79;99981.34;5039195;28;20051;-81
2021/01/01 11:05:50;;;;;;;82.47;65.60;;;;;;;3.44;89.61;99973.94;5040471;28;20144;-80
2021/01/01 11:08:55;;;;;;;81.93;66.57;;;;;;;3.45;89.46;99959.75;5051845;28;20044;-79
2021/01/01 11:11:59;;;;;;;79.68;67.38;;;;;;;3.44;88.85;99964.19;5051749;28;20399;-82
2021/01/01 12:19:21;;;;;;;89.28;71.80;;;;;;;3.43;89.20;99964.31;5040339;28;20073;-77
2021/01/01 12:23:13;;;;;;;92.75;71.60;;;;;;;3.44;90.85;99858.09;5043440;28;20048;-79
2021/01/01 12:26:18;;;;;;;87.97;70.43;;;;;;;3.51;90.28;99848.75;5043245;28;20055;-82
2021/01/01 12:29:26;;;;;;;88.00;70.90;;;;;;;3.52;89.93;99850.47;5031768;28;20346;-80
2021/01/01 12:32:31;;;;;;;91.18;71.75;;;;;;;3.49;90.01;99844.50;5031634;28;20053;-82
2021/01/01 12:35:37;;;;;;;93.63;73.28;;;;;;;3.49;89.93;99844.50;5031510;28;20106;-80
2021/01/01 12:38:41;;;;;;;94.40;72.97;;;;;;;3.50;90.09;99844.44;5031704;28;20407;-81
2021/01/01 12:41:46;;;;;;;96.20;76.20;;;;;;;3.39;90.23;99838.97;5031606;28;20056;-82
2021/01/01 12:44:51;;;;;;;97.70;76.55;;;;;;;3.39;90.10;99836.31;5031507;28;20609;-82
2021/01/01 12:47:56;;;;;;;99.03;77.63;;;;;;;3.45;90.17;99827.09;5031377;28;20056;-81
2021/01/01 12:51:01;;;;;;;95.95;74.03;;;;;;;3.52;90.16;99833.69;5042419;28;20056;-76
2021/01/01 12:54:05;;;;;;;97.65;78.57;;;;;;;3.51;90.31;99840.81;5049468;28;20047;-77
2021/01/01 12:57:10;;;;;;;95.70;76.63;;;;;;;3.52;90.69;99831.91;5060599;28;20048;-84
2021/01/01 13:00:16;;;;;;;96.68;79.15;;;;;;;3.52;91.07;99820.44;5050828;28;20051;-79
2021/01/01 13:03:20;;;;;;;95.57;80.47;;;;;;;3.47;90.89;99825.19;5051114;28;20051;-77
2021/01/01 13:06:26;;;;;;;95.82;79.13;;;;;;;3.42;90.95;99832.63;5062381;28;20056;-78
2021/01/01 13:09:30;;;;;;;88.72;77.80;;;;;;;3.40;91.18;99839.81;5039092;28;20075;-78
2021/01/01 13:12:35;;;;;;;87.60;75.53;;;;;;;3.35;91.21;99831.31;5048168;28;20115;-77
2021/01/01 13:15:39;;;;;;;91.68;74.25;;;;;;;3.32;91.23;99834.19;5030911;28;20060;-77
2021/01/01 13:18:45;;;;;;;83.32;72.00;;;;;;;3.32;91.04;99840.34;5030878;28;20040;-79
2021/01/01 13:21:51;;;;;;;86.13;73.10;;;;;;;3.20;91.09;99831.41;5054532;28;20063;-79
2021/01/01 13:24:57;;;;;;;86.75;73.15;;;;;;;3.15;91.34;99830.84;5048212;28;20055;-78
2021/01/01 13:28:01;;;;;;;97.72;76.75;;;;;;;3.15;91.36;99830.00;5061124;28;20043;-78
2021/01/01 13:31:05;;;;;;;90.82;75.00;;;;;;;3.16;91.18;99829.88;5061182;28;20047;-77
2021/01/01 13:34:11;;;;;;;91.70;74.65;;;;;;;3.12;91.28;99833.69;5064606;28;20059;-78
2021/01/01 13:37:16;;;;;;;93.53;77.00;;;;;;;3.04;91.55;99827.19;5069784;28;20043;-78
2021/01/01 13:40:20;;;;;;;100.28;80.93;;;;;;;2.97;91.63;99825.88;5069611;28;20055;-78
2021/01/01 13:43:25;;;;;;;103.55;79.28;;;;;;;3.04;91.86;99824.53;5079641;28;20051;-79
2021/01/01 13:46:30;;;;;;;98.72;79.82;;;;;;;3.01;91.68;99838.00;5057095;28;20402;-80
2021/01/01 13:49:34;;;;;;;106.93;82.78;;;;;;;2.92;92.06;99828.84;5069501;28;20082;-79
2021/01/01 13:52:38;;;;;;;105.88;81.55;;;;;;;2.92;92.44;99826.19;5057598;28;20040;-85
2021/01/01 13:55:45;;;;;;;106.20;82.18;;;;;;;2.94;92.48;99842.84;5069425;28;20387;-79
2021/01/01 13:58:50;;;;;;;101.60;81.90;;;;;;;2.94;92.57;99842.00;5058375;28;20098;-78
2021/01/01 14:01:55;;;;;;;95.43;79.45;;;;;;;2.97;92.59;99844.44;5068400;28;20050;-79
2021/01/01 14:04:59;;;;;;;101.10;79.45;;;;;;;2.87;92.61;99840.69;5058027;28;20047;-78
2021/01/01 14:08:04;;;;;;;105.55;80.00;;;;;;;2.79;92.76;99849.13;5037859;28;20051;-79
2021/01/01 14:11:10;;;;;;;98.10;78.60;;;;;;;2.80;93.11;99849.97;5049181;28;20048;-78
2021/01/01 14:14:14;;;;;;;99.82;81.80;;;;;;;2.76;93.11;99838.75;5038044;28;20052;-79
2021/01/01 14:17:20;;;;;;;96.50;77.68;;;;;;;2.75;93.23;99847.63;5049977;28;20051;-78
2021/01/01 14:20:24;;;;;;;91.40;75.00;;;;;;;2.69;93.58;99847.19;5049861;28;20051;-78
2021/01/01 14:23:32;;;;;;;89.45;72.95;;;;;;;2.72;93.33;99841.66;4999327;28;20533;-78
2021/01/01 14:26:36;;;;;;;84.35;70.57;;;;;;;2.77;93.02;99850.16;5008511;28;20065;-79
2021/01/01 14:29:40;;;;;;;85.43;72.05;;;;;;;2.77;93.19;99840.44;4997669;28;20048;-77
2021/01/01 14:32:45;;;;;;;87.50;74.93;;;;;;;2.80;93.17;99845.53;5008883;28;20045;-79
2021/01/01 14:35:50;;;;;;;88.65;72.18;;;;;;;2.80;92.93;99840.25;5008344;28;20056;-77
2021/01/01 14:38:55;;;;;;;86.10;71.60;;;;;;;2.80;93.05;99844.69;5001603;28;20179;-79
2021/01/01 14:42:01;;;;;;;82.05;68.85;;;;;;;2.75;92.83;99831.72;5012951;28;20056;-77
2021/01/01 14:45:06;;;;;;;84.10;69.70;;;;;;;2.77;92.95;99836.91;5010865;28;20056;-79
2021/01/01 14:48:11;;;;;;;77.38;65.95;;;;;;;2.79;93.20;99835.88;4999406;28;20184;-78
2021/01/01 14:51:15;;;;;;;75.50;64.22;;;;;;;2.79;92.89;99846.47;5010511;28;20052;-79
2021/01/01 14:54:32;;;;;;;78.05;64.70;;;;;;;2.80;92.62;99855.28;4992704;28;20540;-77
2021/01/01 14:57:38;;;;;;;75.32;62.20;;;;;;;2.69;92.43;99852.47;5009097;28;20056;-78
2021/01/01 15:00:42;;;;;;;80.72;63.95;;;;;;;2.70;92.38;99844.41;5033797;28;20052;-76
2021/01/01 15:03:46;;;;;;;78.50;62.40;;;;;;;2.66;92.28;99850.03;5013245;28;20040;-78
2021/01/01 15:06:54;;;;;;;65.82;58.05;;;;;;;2.67;92.29;99847.25;5051332;28;20506;-79
2021/01/01 15:10:00;;;;;;;66.40;57.15;;;;;;;2.71;92.05;99855.88;5041170;28;20503;-78
2021/01/01 15:13:04;;;;;;;74.20;62.47;;;;;;;2.57;91.90;99847.00;5030038;28;20052;-76
2021/01/01 15:16:09;;;;;;;78.63;60.45;;;;;;;2.59;92.07;99847.75;5044524;28;20060;-77
2021/01/01 15:19:14;;;;;;;70.90;58.40;;;;;;;2.59;91.79;99842.44;5033356;28;20056;-77
2021/01/01 15:22:19;;;;;;;64.65;56.42;;;;;;;2.57;91.76;99838.19;5031025;28;20048;-78
2021/01/01 15:25:23;;;;;;;65.20;56.75;;;;;;;2.52;91.98;99840.28;5039834;28;20060;-78
2021/01/01 15:28:27;;;;;;;64.65;55.88;;;;;;;2.50;91.92;99848.34;5012304;28;20053;-77